Time;durP1;ratioP1;P1;durP2;ratioP2;P2;SDS_P1;SDS_P2;PMS_P1;PMS_P2;Temp;Humidity;BMP_temperature;BMP_pressure;BME280_temperature;BME280_humidity;BME280_pressure;Samples;Min_cycle;Max_cycle;Signal;HPM_P1;HPM_P2
2023/07/03 00:02:33;;;;;;;21.60;11.40;;;;;;;20.69;46.81;98467.25;7008783;28;20222;-82
2023/07/03 00:05:56;;;;;;;19.20;12.10;;;;;;;21.25;45.58;98469.53;7007937;28;20654;-82
2023/07/03 00:09:17;;;;;;;19.00;11.43;;;;;;;21.17;45.69;98464.63;7008817;28;20225;-81
2023/07/03 00:12:38;;;;;;;23.20;12.13;;;;;;;21.22;45.31;98450.06;7009369;28;20296;-82
2023/07/03 00:16:00;;;;;;;17.97;11.33;;;;;;;20.99;45.71;98461.69;7009514;28;20769;-81
2023/07/03 00:19:26;;;;;;;19.23;12.33;;;;;;;20.80;45.24;98408.56;7014267;28;20732;-82
2023/07/03 00:22:51;;;;;;;18.17;11.30;;;;;;;21.13;45.67;98462.75;7012341;28;20194;-82
2023/07/03 00:26:12;;;;;;;17.63;11.63;;;;;;;21.14;46.13;98472.59;6999572;28;20255;-82
2023/07/03 00:29:34;;;;;;;19.53;12.10;;;;;;;20.59;46.42;98381.53;6999478;28;20351;-83
2023/07/03 00:32:56;;;;;;;17.53;11.43;;;;;;;21.06;46.14;98434.00;7000228;28;20302;-83
2023/07/03 00:36:18;;;;;;;19.03;11.63;;;;;;;20.83;45.10;98406.09;6997678;28;20352;-82
2023/07/03 00:39:41;;;;;;;18.97;12.70;;;;;;;20.51;46.55;98453.31;7000057;28;20293;-83
2023/07/03 00:43:03;;;;;;;19.70;11.97;;;;;;;19.87;48.84;98476.88;6999602;28;20292;-82
2023/07/03 00:46:25;;;;;;;17.60;11.13;;;;;;;19.97;47.74;98431.16;6999136;28;20224;-83
2023/07/03 00:49:46;;;;;;;19.03;11.63;;;;;;;20.52;47.44;98472.19;6999671;28;20293;-81
2023/07/03 00:53:10;;;;;;;17.63;10.70;;;;;;;21.12;45.47;98471.25;7000400;28;20628;-83
2023/07/03 00:56:32;;;;;;;19.20;10.90;;;;;;;20.92;45.68;98477.63;6999160;28;20236;-83
2023/07/03 00:59:54;;;;;;;21.03;12.30;;;;;;;20.77;45.60;98471.34;7000069;28;20647;-82
2023/07/03 01:03:23;;;;;;;20.27;11.83;;;;;;;21.17;44.83;98473.97;7000014;28;20259;-83
2023/07/03 01:06:50;;;;;;;19.53;11.37;;;;;;;21.55;43.77;98468.56;6977124;28;20705;-82
2023/07/03 01:10:14;;;;;;;17.73;11.50;;;;;;;21.49;43.80;98462.25;6972592;28;20191;-83
2023/07/03 01:13:38;;;;;;;23.60;13.03;;;;;;;21.63;42.96;98451.47;6972431;28;20208;-83
2023/07/03 01:17:00;;;;;;;19.73;11.30;;;;;;;21.80;43.85;98454.69;6971713;28;20264;-82
2023/07/03 01:20:22;;;;;;;17.40;11.17;;;;;;;21.45;45.43;98457.63;6972449;28;20238;-82
2023/07/03 01:23:49;;;;;;;19.37;11.17;;;;;;;21.10;45.85;98455.06;6973488;28;20238;-82
2023/07/03 01:27:14;;;;;;;16.30;10.50;;;;;;;20.94;44.90;98458.16;6988508;28;20368;-82
2023/07/03 01:30:36;;;;;;;16.70;11.30;;;;;;;20.85;44.22;98419.50;6999700;28;20205;-82
2023/07/03 01:33:59;;;;;;;21.00;10.80;;;;;;;21.83;42.66;98452.19;6999454;28;20217;-83
2023/07/03 01:37:25;;;;;;;19.83;10.57;;;;;;;21.89;42.41;98451.06;6997526;28;20228;-82
2023/07/03 01:40:47;;;;;;;18.40;11.80;;;;;;;22.12;42.29;98453.06;6998751;28;20284;-83
2023/07/03 01:44:10;;;;;;;20.57;11.37;;;;;;;22.18;41.57;98451.09;6999032;28;20207;-83
2023/07/03 01:47:31;;;;;;;20.33;11.17;;;;;;;22.26;41.04;98429.34;6997222;28;20264;-83
2023/07/03 01:50:53;;;;;;;18.47;10.80;;;;;;;22.48;41.52;98437.91;6998346;28;20206;-83
2023/07/03 01:54:18;;;;;;;17.10;11.33;;;;;;;21.51;44.74;98440.03;6997729;28;20779;-83
2023/07/03 01:57:43;;;;;;;19.27;11.07;;;;;;;21.75;43.17;98441.00;6997961;28;20228;-83
2023/07/03 02:01:09;;;;;;;16.23;10.80;;;;;;;21.56;43.27;98435.34;6998162;28;20702;-83
2023/07/03 02:04:33;;;;;;;17.30;11.13;;;;;;;21.66;42.72;98439.97;6998282;28;20300;-84
2023/07/03 02:07:58;;;;;;;16.17;10.67;;;;;;;22.27;41.46;98436.47;6997769;28;20449;-83
2023/07/03 02:11:21;;;;;;;16.63;11.13;;;;;;;22.53;40.88;98434.31;6998023;28;20302;-82
2023/07/03 02:14:43;;;;;;;18.20;10.97;;;;;;;22.72;40.41;98443.44;6999414;28;20343;-83
2023/07/03 02:18:07;;;;;;;21.33;12.33;;;;;;;22.60;40.79;98434.78;6998371;28;20708;-82
2023/07/03 02:21:28;;;;;;;21.57;11.53;;;;;;;22.58;41.51;98435.06;6999032;28;20223;-82
2023/07/03 02:24:50;;;;;;;19.20;12.43;;;;;;;22.85;40.38;98435.34;6999410;28;20216;-81
2023/07/03 02:28:12;;;;;;;20.30;11.50;;;;;;;22.77;40.57;98440.66;6999392;28;20233;-82
2023/07/03 02:31:34;;;;;;;21.67;10.97;;;;;;;23.04;40.41;98446.38;6999671;28;20207;-82
2023/07/03 02:34:57;;;;;;;18.77;11.00;;;;;;;22.88;40.21;98431.97;6999711;28;20209;-82
2023/07/03 02:38:19;;;;;;;19.53;11.20;;;;;;;22.65;40.07;98394.31;6997068;28;20268;-82
2023/07/03 02:41:41;;;;;;;15.83;10.63;;;;;;;23.05;39.92;98437.81;7002074;28;20267;-82
2023/07/03 02:45:04;;;;;;;21.83;11.97;;;;;;;23.08;40.77;98436.44;6994313;28;20744;-81
2023/07/03 02:48:26;;;;;;;17.10;11.57;;;;;;;22.84;42.13;98438.38;6998631;28;20705;-83
2023/07/03 02:51:48;;;;;;;17.07;11.07;;;;;;;23.27;41.78;98429.88;7000099;28;20252;-82
2023/07/03 02:55:10;;;;;;;20.63;12.17;;;;;;;22.60;43.14;98432.84;7004919;28;20208;-83
2023/07/03 02:58:31;;;;;;;17.37;11.17;;;;;;;22.84;43.06;98422.66;7002107;28;20369;-81
2023/07/03 03:01:53;;;;;;;17.70;11.17;;;;;;;23.08;42.35;98426.22;7002412;28;20319;-82
2023/07/03 03:05:15;;;;;;;17.13;11.43;;;;;;;22.91;42.66;98403.91;7002467;28;20807;-82
2023/07/03 03:08:38;;;;;;;19.73;11.00;;;;;;;23.13;42.31;98431.66;7003851;28;20297;-81
2023/07/03 03:11:59;;;;;;;17.97;11.20;;;;;;;23.09;42.15;98433.38;7005885;28;20208;-82
2023/07/03 03:15:21;;;;;;;16.83;11.07;;;;;;;22.93;40.97;98437.44;7005643;28;20220;-82
2023/07/03 03:18:43;;;;;;;17.77;10.90;;;;;;;22.78;39.88;98406.56;7005759;28;20259;-82
2023/07/03 03:22:05;;;;;;;18.87;10.30;;;;;;;22.40;40.32;98427.53;7006665;28;20327;-82
2023/07/03 03:25:27;;;;;;;20.03;11.23;;;;;;;22.59;39.94;98442.22;7006617;28;20268;-82
2023/07/03 03:28:49;;;;;;;18.53;11.30;;;;;;;22.71;39.75;98430.81;7004833;28;20283;-83
2023/07/03 03:32:10;;;;;;;19.40;10.47;;;;;;;22.56;39.85;98430.97;7006149;28;20267;-82
2023/07/03 03:35:32;;;;;;;19.07;10.87;;;;;;;22.57;39.90;98433.44;7004528;28;20361;-82
2023/07/03 03:38:54;;;;;;;19.77;10.83;;;;;;;22.59;39.98;98435.91;7004522;28;20287;-83
2023/07/03 03:42:17;;;;;;;20.00;10.90;;;;;;;22.69;39.89;98431.09;7004883;28;20349;-82
2023/07/03 03:45:39;;;;;;;16.70;10.83;;;;;;;22.64;40.00;98431.16;7006178;28;20218;-82
2023/07/03 03:49:01;;;;;;;17.33;10.47;;;;;;;22.80;40.06;98404.31;7004950;28;20253;-83
2023/07/03 03:52:22;;;;;;;18.30;10.80;;;;;;;22.86;40.26;98428.72;7005566;28;20304;-83
2023/07/03 03:55:44;;;;;;;16.73;11.13;;;;;;;22.92;40.42;98437.72;7006014;28;20398;-83
2023/07/03 03:59:07;;;;;;;16.37;10.70;;;;;;;22.74;40.47;98422.81;7007239;28;20710;-82
2023/07/03 04:02:28;;;;;;;18.40;11.53;;;;;;;22.26;40.61;98341.44;7006489;28;20385;-82
2023/07/03 04:05:50;;;;;;;19.23;10.90;;;;;;;22.68;40.35;98423.97;7007018;28;20269;-83
2023/07/03 04:09:11;;;;;;;20.07;10.70;;;;;;;22.73;40.66;98440.38;7007381;28;20311;-82
2023/07/03 04:12:33;;;;;;;19.43;11.63;;;;;;;22.81;41.04;98438.94;7010394;28;20783;-82
2023/07/03 04:16:01;;;;;;;16.33;11.33;;;;;;;22.56;41.19;98444.72;7010296;28;20268;-83
2023/07/03 04:19:23;;;;;;;19.40;11.43;;;;;;;22.60;41.06;98443.03;7006937;28;20209;-83
2023/07/03 04:22:45;;;;;;;17.00;11.03;;;;;;;22.55;41.15;98432.09;7009593;28;20284;-82
2023/07/03 04:26:06;;;;;;;20.00;11.53;;;;;;;22.26;41.56;98445.81;7004115;28;20251;-82
2023/07/03 04:29:28;;;;;;;21.27;11.47;;;;;;;22.55;41.10;98438.38;7003135;28;20674;-82
2023/07/03 04:32:54;;;;;;;18.53;11.00;;;;;;;22.46;41.32;98456.63;7002675;28;20270;-83
2023/07/03 04:36:20;;;;;;;20.67;11.73;;;;;;;22.23;42.10;98451.03;7001146;28;20230;-83
2023/07/03 04:39:42;;;;;;;15.83;10.60;;;;;;;22.58;41.58;98454.31;7005595;28;20648;-80
2023/07/03 04:43:06;;;;;;;15.33;10.37;;;;;;;22.49;41.57;98444.25;7007150;28;20573;-82
2023/07/03 04:46:29;;;;;;;16.00;10.03;;;;;;;22.62;40.95;98435.31;6996620;28;20234;-82
2023/07/03 04:49:55;;;;;;;16.50;10.60;;;;;;;22.69;41.57;98455.84;7003640;28;20605;-82
2023/07/03 04:53:19;;;;;;;18.10;11.53;;;;;;;22.94;41.02;98451.97;7002421;28;20197;-82
2023/07/03 04:56:42;;;;;;;17.13;10.93;;;;;;;22.65;42.12;98454.78;7002303;28;20224;-82
2023/07/03 05:00:09;;;;;;;17.03;10.80;;;;;;;22.57;41.90;98460.09;7003325;28;20210;-82
2023/07/03 05:03:32;;;;;;;16.77;10.47;;;;;;;22.68;41.49;98445.13;7001660;28;20231;-86
2023/07/03 05:06:55;;;;;;;22.23;10.67;;;;;;;22.99;42.55;98465.66;7000453;28;20231;-83
2023/07/03 05:10:18;;;;;;;20.30;11.30;;;;;;;23.13;41.71;98456.41;7000987;28;20265;-82
2023/07/03 05:13:39;;;;;;;16.23;10.70;;;;;;;23.27;41.19;98460.13;6999147;28;20251;-83
2023/07/03 05:17:02;;;;;;;15.80;10.17;;;;;;;23.22;40.70;98451.94;6998618;28;20706;-82
2023/07/03 05:20:25;;;;;;;15.77;9.07;;;;;;;22.83;40.66;98465.03;6999951;28;20210;-82
2023/07/03 05:23:48;;;;;;;16.93;10.33;;;;;;;23.18;40.95;98469.34;6999422;28;20319;-81
2023/07/03 05:27:10;;;;;;;16.23;10.80;;;;;;;22.98;41.09;98426.38;6998256;28;20222;-81
2023/07/03 05:30:31;;;;;;;14.57;10.00;;;;;;;23.66;40.55;98471.69;6999425;28;20363;-82
2023/07/03 05:33:53;;;;;;;17.27;10.10;;;;;;;23.70;40.51;98456.22;6999056;28;20210;-82
2023/07/03 05:37:14;;;;;;;17.20;10.07;;;;;;;23.66;39.32;98411.13;6986712;28;20276;-82
2023/07/03 05:40:37;;;;;;;16.97;9.90;;;;;;;23.89;39.01;98481.03;6996201;28;20196;-82
2023/07/03 05:43:59;;;;;;;14.50;10.00;;;;;;;23.59;40.30;98481.44;6979511;28;20233;-82
2023/07/03 05:47:20;;;;;;;18.30;9.40;;;;;;;23.83;40.47;98471.19;6970986;28;20233;-81
2023/07/03 05:50:42;;;;;;;17.17;10.43;;;;;;;24.08;39.37;98477.13;6970917;28;20289;-82
2023/07/03 05:54:03;;;;;;;15.67;9.23;;;;;;;24.30;38.68;98488.34;6971375;28;20728;-82
2023/07/03 05:57:26;;;;;;;18.90;8.63;;;;;;;24.36;37.92;98483.59;6976369;28;20321;-82
2023/07/03 06:00:48;;;;;;;15.43;8.63;;;;;;;24.64;38.24;98494.41;6976306;28;20274;-81
2023/07/03 06:04:11;;;;;;;13.67;8.93;;;;;;;24.70;38.01;98460.09;6976568;28;20298;-81
2023/07/03 06:07:33;;;;;;;13.90;9.30;;;;;;;24.90;37.25;98478.22;6976277;28;20233;-82
2023/07/03 06:10:54;;;;;;;14.40;9.00;;;;;;;24.42;38.06;98460.31;6974808;28;20294;-82
2023/07/03 06:14:18;;;;;;;15.20;9.47;;;;;;;24.67;38.10;98491.03;6979709;28;20235;-82
2023/07/03 06:17:42;;;;;;;16.93;9.80;;;;;;;24.73;38.32;98494.53;6973428;28;20312;-82
2023/07/03 06:21:03;;;;;;;13.70;8.90;;;;;;;24.73;38.64;98481.53;6974354;28;20196;-82
2023/07/03 06:24:25;;;;;;;12.77;8.67;;;;;;;25.12;36.88;98486.59;6973908;28;20209;-82
2023/07/03 06:27:47;;;;;;;11.40;8.00;;;;;;;25.30;37.22;98494.00;6977586;28;20377;-82
2023/07/03 06:31:10;;;;;;;12.73;8.47;;;;;;;25.46;36.92;98495.28;6982643;28;20229;-82
2023/07/03 06:34:31;;;;;;;17.10;8.90;;;;;;;25.29;37.04;98484.88;6982762;28;20228;-81
2023/07/03 06:37:55;;;;;;;16.80;9.10;;;;;;;25.34;36.90;98493.06;6982990;28;20344;-81
2023/07/03 06:41:17;;;;;;;13.73;9.33;;;;;;;25.16;37.81;98505.00;6983311;28;20224;-82
2023/07/03 06:44:40;;;;;;;18.03;9.57;;;;;;;24.96;38.06;98486.06;6982636;28;20294;-81
2023/07/03 06:48:03;;;;;;;13.93;9.03;;;;;;;25.29;38.04;98493.16;7005832;28;20237;-82
2023/07/03 06:51:25;;;;;;;19.60;9.33;;;;;;;25.62;37.30;98505.72;6984099;28;20291;-82
2023/07/03 06:54:47;;;;;;;14.20;9.30;;;;;;;25.40;37.51;98488.25;6980127;28;20548;-82
2023/07/03 06:58:08;;;;;;;15.13;8.93;;;;;;;25.42;37.47;98499.81;6975663;28;20289;-81
2023/07/03 07:01:30;;;;;;;17.63;9.13;;;;;;;25.73;37.24;98515.38;6980564;28;20264;-82
2023/07/03 07:04:54;;;;;;;13.23;8.37;;;;;;;25.57;36.42;98513.28;6979569;28;20345;-82
2023/07/03 07:08:18;;;;;;;14.37;9.40;;;;;;;24.74;37.23;98509.94;6982777;28;20229;-82
2023/07/03 07:11:39;;;;;;;13.60;8.60;;;;;;;24.74;37.36;98505.25;6982525;28;20271;-82
2023/07/03 07:15:01;;;;;;;13.57;8.50;;;;;;;25.36;36.21;98499.06;6980179;28;20576;-81
2023/07/03 07:18:23;;;;;;;16.07;8.23;;;;;;;25.27;36.02;98509.22;6975470;28;20319;-82
2023/07/03 07:21:46;;;;;;;12.83;7.57;;;;;;;25.27;36.24;98506.47;6975700;28;20495;-81
2023/07/03 07:25:08;;;;;;;13.23;7.53;;;;;;;25.13;35.85;98507.53;6977309;28;20198;-82
2023/07/03 07:28:30;;;;;;;14.23;7.70;;;;;;;25.26;35.92;98502.03;7002440;28;20639;-81
2023/07/03 07:31:54;;;;;;;12.60;7.20;;;;;;;25.45;35.85;98501.94;7003620;28;20205;-82
2023/07/03 07:35:15;;;;;;;12.10;7.63;;;;;;;25.89;35.44;98502.06;7003077;28;20356;-81
2023/07/03 07:38:38;;;;;;;11.83;7.40;;;;;;;25.85;34.51;98503.81;7001860;28;20225;-83
2023/07/03 07:42:00;;;;;;;16.90;7.93;;;;;;;25.48;35.63;98504.09;6995583;28;20680;-82
2023/07/03 07:45:22;;;;;;;13.40;8.17;;;;;;;25.40;35.68;98466.97;7004670;28;20563;-82
2023/07/03 07:48:45;;;;;;;14.77;8.37;;;;;;;25.43;36.65;98501.44;7007483;28;20303;-82
2023/07/03 07:52:08;;;;;;;16.40;8.30;;;;;;;25.66;35.81;98512.22;7009561;28;20209;-83
2023/07/03 07:55:30;;;;;;;12.83;7.93;;;;;;;25.59;36.23;98509.06;7016613;28;20244;-82
2023/07/03 07:58:53;;;;;;;15.33;8.10;;;;;;;25.21;36.14;98517.88;7005039;28;20320;-83
2023/07/03 08:02:14;;;;;;;16.57;8.43;;;;;;;24.48;37.97;98517.81;7009780;28;20301;-83
2023/07/03 08:05:36;;;;;;;15.37;8.77;;;;;;;24.69;37.68;98475.00;7009557;28;20361;-82
2023/07/03 08:08:58;;;;;;;16.67;8.30;;;;;;;24.21;38.71;98481.91;7010150;28;20702;-83
2023/07/03 08:12:21;;;;;;;15.33;8.50;;;;;;;24.26;38.75;98456.19;7011350;28;20289;-82
2023/07/03 08:15:45;;;;;;;14.87;8.53;;;;;;;25.14;38.12;98518.25;7009980;28;20285;-82
2023/07/03 08:19:06;;;;;;;19.77;8.47;;;;;;;25.15;37.91;98532.88;7012477;28;20285;-83
2023/07/03 08:22:28;;;;;;;13.87;7.87;;;;;;;25.05;38.41;98533.91;7015963;28;20245;-83
2023/07/03 08:25:50;;;;;;;16.33;7.87;;;;;;;25.09;38.07;98532.19;6996931;28;20208;-84
2023/07/03 08:29:13;;;;;;;15.53;8.47;;;;;;;24.97;38.86;98537.38;7000307;28;20576;-84
2023/07/03 08:32:35;;;;;;;15.87;8.60;;;;;;;25.35;37.99;98529.75;7001066;28;20308;-83
2023/07/03 08:35:57;;;;;;;11.37;7.77;;;;;;;25.71;37.80;98522.38;6999950;28;20222;-83
2023/07/03 08:39:18;;;;;;;13.63;8.00;;;;;;;26.14;37.17;98529.16;6977491;28;20789;-82
2023/07/03 08:42:43;;;;;;;15.07;8.73;;;;;;;26.51;36.86;98515.78;6970748;28;20262;-82
2023/07/03 08:46:10;;;;;;;17.07;9.20;;;;;;;26.39;36.33;98520.22;6982240;28;20681;-82
2023/07/03 08:49:33;;;;;;;14.57;8.30;;;;;;;25.40;37.28;98480.78;6998795;28;20650;-82
2023/07/03 08:52:57;;;;;;;15.97;8.83;;;;;;;25.70;38.17;98535.34;6999174;28;20192;-82
2023/07/03 08:56:22;;;;;;;17.07;10.03;;;;;;;26.11;37.21;98535.28;6989989;28;20372;-83
2023/07/03 08:59:43;;;;;;;12.93;9.10;;;;;;;25.81;37.42;98539.53;6988927;28;20670;-82
2023/07/03 09:03:14;;;;;;;16.23;8.60;;;;;;;25.29;38.26;98540.06;6999538;28;20780;-82
2023/07/03 09:06:41;;;;;;;17.43;8.40;;;;;;;25.67;38.29;98541.47;6998600;28;20316;-82
2023/07/03 09:10:06;;;;;;;13.80;8.03;;;;;;;26.57;36.10;98544.97;6999645;28;20281;-82
2023/07/03 09:13:32;;;;;;;12.77;7.50;;;;;;;27.30;34.96;98536.94;6994665;28;20204;-82
2023/07/03 09:16:54;;;;;;;16.20;8.10;;;;;;;27.87;33.15;98532.25;6998395;28;20244;-82
2023/07/03 09:20:17;;;;;;;17.23;9.13;;;;;;;27.38;33.99;98535.34;6999269;28;20214;-82
2023/07/03 09:23:42;;;;;;;14.53;7.70;;;;;;;26.57;35.24;98547.75;6998783;28;20230;-82
2023/07/03 09:27:07;;;;;;;13.40;8.33;;;;;;;26.12;35.01;98460.34;6998640;28;20316;-82
2023/07/03 09:30:29;;;;;;;15.67;8.47;;;;;;;26.63;35.08;98540.13;6999670;28;20685;-82
2023/07/03 09:33:50;;;;;;;13.67;8.27;;;;;;;26.36;34.81;98552.09;6999516;28;20261;-82
2023/07/03 09:37:14;;;;;;;15.30;7.70;;;;;;;27.45;33.74;98544.84;6999283;28;20234;-82
2023/07/03 09:40:38;;;;;;;13.43;8.00;;;;;;;27.87;32.74;98552.47;6996238;28;20232;-82
2023/07/03 09:44:06;;;;;;;15.57;8.23;;;;;;;28.45;31.71;98527.94;6998999;28;20227;-82
2023/07/03 09:47:29;;;;;;;14.80;8.07;;;;;;;27.94;31.63;98541.72;6998576;28;20236;-82
2023/07/03 09:50:51;;;;;;;11.00;6.90;;;;;;;28.40;31.61;98521.72;6999153;28;20211;-82
2023/07/03 09:54:22;;;;;;;14.80;7.97;;;;;;;28.18;31.58;98538.50;6999455;28;20192;-83
2023/07/03 09:57:44;;;;;;;12.20;7.30;;;;;;;27.47;32.76;98527.88;6991821;28;20373;-82
2023/07/03 10:01:06;;;;;;;13.50;7.97;;;;;;;27.97;32.16;98540.25;6973094;28;20328;-82
2023/07/03 10:04:31;;;;;;;15.13;7.53;;;;;;;28.30;31.62;98547.00;6981617;28;20704;-82
2023/07/03 10:07:55;;;;;;;11.10;7.27;;;;;;;29.08;30.75;98555.75;6999972;28;20574;-83
2023/07/03 10:11:22;;;;;;;16.27;7.80;;;;;;;29.36;30.37;98547.81;7000141;28;20681;-82
2023/07/03 10:14:48;;;;;;;14.27;7.10;;;;;;;29.75;28.43;98537.19;6999225;28;20287;-82
2023/07/03 10:18:13;;;;;;;15.43;6.97;;;;;;;29.89;28.46;98543.31;6996339;28;20297;-82
2023/07/03 10:21:35;;;;;;;11.83;6.33;;;;;;;29.94;28.25;98543.13;6999639;28;20358;-83
2023/07/03 10:25:01;;;;;;;14.40;6.77;;;;;;;28.90;29.05;98522.78;6997850;28;20224;-83
2023/07/03 10:28:28;;;;;;;14.20;7.00;;;;;;;28.72;29.16;98538.66;6989572;28;20217;-83
2023/07/03 10:31:53;;;;;;;11.83;6.93;;;;;;;28.24;29.33;98492.84;6971082;28;20241;-83
2023/07/03 10:35:20;;;;;;;13.83;6.53;;;;;;;28.03;30.11;98505.72;6981460;28;20212;-84
2023/07/03 10:38:44;;;;;;;13.17;6.53;;;;;;;28.37;29.49;98514.06;6998464;28;20231;-82
2023/07/03 10:42:10;;;;;;;9.20;5.97;;;;;;;28.55;28.97;98544.22;6997108;28;20544;-83
2023/07/03 10:45:36;;;;;;;12.13;6.47;;;;;;;28.67;28.77;98494.41;6997441;28;20573;-85
2023/07/03 10:49:01;;;;;;;11.50;6.23;;;;;;;28.16;29.32;98549.09;6995509;28;20732;-84
2023/07/03 10:52:29;;;;;;;11.23;6.37;;;;;;;28.30;28.91;98545.00;6996284;28;20188;-85
2023/07/03 10:55:57;;;;;;;9.30;5.73;;;;;;;28.39;28.55;98515.38;6996396;28;20640;-84
2023/07/03 10:59:27;;;;;;;9.27;5.23;;;;;;;28.93;27.77;98536.81;6988272;28;20201;-84
2023/07/03 11:02:57;;;;;;;10.70;4.93;;;;;;;28.45;28.27;98529.88;6968955;28;20802;-83
2023/07/03 11:06:25;;;;;;;10.17;5.93;;;;;;;27.96;29.21;98485.97;6968460;28;20582;-83
2023/07/03 11:09:52;;;;;;;8.80;5.20;;;;;;;27.94;27.98;98447.50;6968605;28;20206;-84
2023/07/03 11:13:16;;;;;;;9.87;5.00;;;;;;;28.31;28.31;98521.69;6969383;28;20283;-83
2023/07/03 11:16:48;;;;;;;7.57;4.03;;;;;;;29.04;27.29;98528.97;6973406;28;20338;-84
2023/07/03 11:20:17;;;;;;;6.70;4.20;;;;;;;29.20;27.96;98530.06;6985555;28;20197;-82
2023/07/03 11:23:47;;;;;;;11.23;5.10;;;;;;;28.48;29.03;98532.00;7002213;28;20745;-89
2023/07/03 11:27:12;;;;;;;8.10;4.60;;;;;;;27.58;30.08;98482.13;7001624;28;20309;-87
2023/07/03 11:30:36;;;;;;;7.77;4.00;;;;;;;27.70;30.50;98532.19;6986288;28;20724;-85
2023/07/03 11:33:58;;;;;;;9.60;4.73;;;;;;;27.58;30.43;98530.03;6973367;28;20307;-85
2023/07/03 11:37:35;;;;;;;8.50;4.50;;;;;;;27.33;30.09;98530.78;6999876;28;20644;-86
2023/07/03 11:41:07;;;;;;;7.73;4.23;;;;;;;27.63;29.46;98527.13;7000903;28;20201;-85
2023/07/03 11:44:31;;;;;;;7.00;4.37;;;;;;;27.86;29.81;98525.09;7000403;28;20273;-84
2023/07/03 11:47:53;;;;;;;8.40;4.20;;;;;;;28.14;30.33;98538.31;6993977;28;20220;-84
2023/07/03 11:51:17;;;;;;;7.77;4.70;;;;;;;27.84;30.76;98533.72;6998913;28;20195;-84
2023/07/03 11:54:41;;;;;;;8.40;4.93;;;;;;;27.31;31.66;98524.72;7000147;28;20268;-86
2023/07/03 11:58:03;;;;;;;9.23;4.20;;;;;;;27.59;31.39;98519.75;6999607;28;20283;-84
2023/07/03 12:01:30;;;;;;;7.73;4.37;;;;;;;27.67;31.97;98549.47;7000205;28;20198;-84
2023/07/03 12:04:54;;;;;;;11.17;4.90;;;;;;;29.05;29.34;98534.19;6988826;28;20230;-84
2023/07/03 12:08:48;;;;;;;9.27;5.07;;;;;;;28.99;30.13;98541.09;6971872;28;20716;-84
2023/07/03 12:12:16;;;;;;;11.60;5.10;;;;;;;28.56;30.16;98542.28;6973167;28;20609;-85
2023/07/03 12:15:38;;;;;;;9.90;5.53;;;;;;;27.29;32.12;98554.69;6972833;28;20209;-82
2023/07/03 12:19:03;;;;;;;10.50;5.33;;;;;;;26.97;32.89;98556.94;6978632;28;20260;-85
2023/07/03 12:22:27;;;;;;;9.50;4.90;;;;;;;27.29;33.38;98551.09;6998887;28;20262;-84
2023/07/03 12:25:49;;;;;;;10.77;5.17;;;;;;;27.52;32.59;98556.25;7005304;28;20258;-84
2023/07/03 12:29:11;;;;;;;11.10;5.10;;;;;;;27.27;32.98;98567.22;7003593;28;20250;-82
2023/07/03 12:32:38;;;;;;;10.20;4.90;;;;;;;27.16;33.37;98547.31;6999294;28;20269;-85
2023/07/03 12:35:59;;;;;;;8.17;4.40;;;;;;;28.18;32.52;98555.16;6998410;28;20296;-85
2023/07/03 12:39:21;;;;;;;8.00;4.47;;;;;;;27.84;31.58;98483.03;6998810;28;20894;-86
2023/07/03 12:42:46;;;;;;;11.53;4.83;;;;;;;28.70;30.97;98543.72;6977767;28;20362;-86
2023/07/03 12:46:09;;;;;;;9.77;4.87;;;;;;;28.76;30.43;98542.41;6968998;28;20183;-86
2023/07/03 12:49:30;;;;;;;9.07;5.10;;;;;;;28.84;29.98;98538.78;6997890;28;20225;-87
2023/07/03 12:52:56;;;;;;;8.20;4.90;;;;;;;28.61;29.96;98553.19;6998756;28;20292;-86
2023/07/03 12:56:18;;;;;;;8.33;4.30;;;;;;;28.77;30.08;98555.13;6998047;28;20317;-85
2023/07/03 12:59:39;;;;;;;9.50;5.03;;;;;;;29.45;29.29;98534.69;6999031;28;20290;-84
2023/07/03 13:03:05;;;;;;;8.43;4.13;;;;;;;29.10;29.47;98541.53;6998465;28;20250;-85
2023/07/03 13:06:29;;;;;;;8.87;4.30;;;;;;;29.44;29.66;98528.34;6996194;28;20284;-85
2023/07/03 13:09:52;;;;;;;8.97;5.03;;;;;;;30.20;28.22;98532.66;6998338;28;20200;-85
2023/07/03 13:13:19;;;;;;;5.93;4.03;;;;;;;29.64;27.98;98469.25;6998730;28;20293;-85
2023/07/03 13:16:41;;;;;;;6.90;3.57;;;;;;;29.48;28.08;98542.38;6999173;28;20569;-85
2023/07/03 13:20:28;;;;;;;7.67;4.07;;;;;;;29.84;28.43;98529.59;7003256;28;20649;-85
2023/07/03 13:23:49;;;;;;;7.83;4.03;;;;;;;29.09;29.07;98537.97;7025841;28;20291;-85
2023/07/03 13:27:19;;;;;;;6.83;4.00;;;;;;;29.54;28.75;98519.63;7026213;28;20268;-85
2023/07/03 13:30:41;;;;;;;5.13;3.83;;;;;;;29.77;28.35;98512.66;7026168;28;20685;-85
2023/07/03 13:34:10;;;;;;;5.80;3.80;;;;;;;31.22;26.48;98514.16;7021670;28;20214;-85
2023/07/03 13:37:36;;;;;;;5.57;3.30;;;;;;;31.76;24.98;98504.44;6997521;28;20592;-85
2023/07/03 13:40:59;;;;;;;4.77;3.20;;;;;;;30.49;25.17;98503.94;6981969;28;20290;-84
2023/07/03 13:44:22;;;;;;;8.30;3.00;;;;;;;28.95;27.10;98515.13;6970779;28;20836;-84
2023/07/03 13:47:44;;;;;;;3.73;3.00;;;;;;;29.09;27.63;98514.91;6970030;28;20225;-85
2023/07/03 13:51:05;;;;;;;3.13;2.60;;;;;;;28.59;28.30;98508.31;6970313;28;20627;-84
2023/07/03 13:54:32;;;;;;;6.10;3.27;;;;;;;28.63;28.35;98500.97;6969608;28;20303;-86
2023/07/03 13:57:53;;;;;;;6.50;3.50;;;;;;;29.12;27.75;98501.19;6969668;28;20229;-85
2023/07/03 14:01:15;;;;;;;6.63;3.07;;;;;;;29.23;27.59;98502.44;6973577;28;20338;-86
2023/07/03 14:04:36;;;;;;;6.20;3.10;;;;;;;29.43;26.87;98482.25;6969288;28;20222;-86
2023/07/03 14:07:58;;;;;;;5.03;3.40;;;;;;;29.38;26.81;98499.09;6986744;28;20278;-86
2023/07/03 14:11:21;;;;;;;6.13;2.93;;;;;;;29.87;26.79;98497.53;6997206;28;20236;-84
2023/07/03 14:14:42;;;;;;;4.17;2.57;;;;;;;29.15;27.07;98494.97;6996752;28;20261;-86
2023/07/03 14:18:06;;;;;;;7.40;3.27;;;;;;;28.98;27.74;98508.91;6985729;28;20281;-85
2023/07/03 14:21:28;;;;;;;4.00;2.63;;;;;;;28.83;27.38;98439.22;6968763;28;20275;-85
2023/07/03 14:24:50;;;;;;;5.60;2.63;;;;;;;28.60;27.50;98483.00;6968912;28;20236;-85
2023/07/03 14:28:13;;;;;;;5.20;2.90;;;;;;;29.70;27.16;98494.88;6968712;28;20227;-85
2023/07/03 14:31:34;;;;;;;4.60;2.60;;;;;;;28.63;27.61;98437.97;6969174;28;20291;-86
2023/07/03 14:34:56;;;;;;;4.80;2.63;;;;;;;29.16;28.13;98496.59;6979651;28;20723;-85
2023/07/03 14:38:17;;;;;;;3.67;2.00;;;;;;;28.29;29.25;98487.09;6996010;28;20322;-87
2023/07/03 14:41:39;;;;;;;3.97;2.17;;;;;;;28.08;30.15;98489.72;6997137;28;20608;-86
2023/07/03 14:45:03;;;;;;;5.10;2.20;;;;;;;29.16;28.68;98491.03;6990142;28;20363;-87
2023/07/03 14:48:24;;;;;;;3.30;2.30;;;;;;;29.44;27.38;98471.94;6996676;28;20232;-90
2023/07/03 14:51:46;;;;;;;3.43;2.20;;;;;;;29.97;27.69;98472.13;7002358;28;20231;-85
2023/07/03 14:55:09;;;;;;;2.93;2.07;;;;;;;30.71;25.20;98418.09;7002164;28;20220;-85
2023/07/03 14:58:30;;;;;;;3.53;2.10;;;;;;;29.52;26.21;98377.44;7002069;28;20353;-85
2023/07/03 15:01:53;;;;;;;3.80;2.27;;;;;;;30.14;26.21;98405.25;6979546;28;20202;-85
2023/07/03 15:05:16;;;;;;;3.27;2.30;;;;;;;30.24;26.50;98475.19;6974504;28;20344;-85
2023/07/03 15:08:37;;;;;;;4.13;2.50;;;;;;;29.68;26.93;98469.38;6974046;28;20359;-86
2023/07/03 15:11:59;;;;;;;2.67;2.03;;;;;;;29.75;27.22;98481.59;6974403;28;20736;-82
2023/07/03 15:15:20;;;;;;;4.60;2.20;;;;;;;29.21;27.71;98467.81;6975180;28;20228;-84
2023/07/03 15:18:43;;;;;;;4.20;2.40;;;;;;;28.87;27.59;98421.56;7000564;28;20221;-83
2023/07/03 15:22:06;;;;;;;2.10;1.90;;;;;;;29.23;27.15;98469.13;7001648;28;20600;-84
2023/07/03 15:25:32;;;;;;;3.83;2.20;;;;;;;29.08;27.52;98468.88;7001624;28;20296;-84
2023/07/03 15:28:53;;;;;;;3.17;2.10;;;;;;;28.86;27.41;98408.00;6997413;28;20276;-84
2023/07/03 15:32:15;;;;;;;1.53;1.43;;;;;;;29.69;26.83;98462.66;7001633;28;20231;-83
2023/07/03 15:35:38;;;;;;;4.87;1.97;;;;;;;29.64;27.52;98451.75;7001191;28;20217;-83
2023/07/03 15:39:00;;;;;;;2.97;1.73;;;;;;;29.84;26.96;98407.28;6974688;28;20307;-84
2023/07/03 15:42:21;;;;;;;4.43;1.90;;;;;;;29.99;26.55;98437.25;7001718;28;20282;-83
2023/07/03 15:45:43;;;;;;;3.17;1.77;;;;;;;29.50;26.90;98399.19;7004917;28;20229;-83